Alcot, South Carolina
Current Conditions -  °F | °C
As of 9:55 AM on Friday 28 Nov 2014 (Local Time) from KCDN Reporting Station
Clear Clear  
Wind Chill:   Ceiling: Unl
Heat Index:   Visibility: 10mi
Dew Point: -5°   Wind: 7mph
Humidity: 56%   Direction: 330°NNW
Pressure: 30.43"   Gusts: NA
Location:  34.2324°N, 80.2824°W
Report Text: KCDN 281455Z AUTO 33006KT 10SM CLR 03/M05 A3043 RMK AO2 TSNO
Loading
Personal Weather Stations






























Interactive Weather Map New forecast layout! Learn more

10-Day Weather Forecast

Advertisements
Track Severe Weather on mobile